Time;durP1;ratioP1;P1;durP2;ratioP2;P2;SDS_P1;SDS_P2;PMS_P1;PMS_P2;Temp;Humidity;BMP_temperature;BMP_pressure;BME280_temperature;BME280_humidity;BME280_pressure;Samples;Min_cycle;Max_cycle;Signal;HPM_P1;HPM_P2
2022/07/02 00:01:22;;;;;;;3.10;0.60;;;;;;;25.91;34.80;101866.25;6219982;23;20339;-43
2022/07/02 00:03:54;;;;;;;1.00;0.35;;;;;;;25.95;35.00;101872.44;6219942;23;20019;-43
2022/07/02 00:06:29;;;;;;;1.13;0.47;;;;;;;25.91;35.22;101868.88;6245818;23;20455;-44
2022/07/02 00:08:57;;;;;;;1.73;0.35;;;;;;;25.97;34.90;101875.13;6195716;23;20416;-45
2022/07/02 00:11:28;;;;;;;0.40;0.35;;;;;;;25.94;34.87;101871.56;6219281;23;20004;-43
2022/07/02 00:13:57;;;;;;;1.65;0.80;;;;;;;25.78;34.83;101841.47;6246395;23;20011;-43
2022/07/02 00:16:25;;;;;;;0.93;0.45;;;;;;;25.90;34.93;101863.56;6244212;23;20087;-43
2022/07/02 00:18:54;;;;;;;1.92;0.60;;;;;;;25.82;34.84;101860.78;6245633;23;20004;-48
2022/07/02 00:21:23;;;;;;;1.02;0.47;;;;;;;25.81;35.06;101864.31;6246061;23;19996;-44
2022/07/02 00:23:52;;;;;;;1.70;0.50;;;;;;;25.86;34.84;101865.25;6245964;23;20474;-43
2022/07/02 00:26:42;;;;;;;0.93;0.35;;;;;;;25.79;34.90;101856.38;6245995;23;20010;-47
2022/07/02 00:29:32;;;;;;;1.30;0.57;;;;;;;25.85;34.86;101858.22;6240599;23;20000;-44
2022/07/02 00:32:01;;;;;;;1.17;0.45;;;;;;;25.83;34.74;101849.44;6212177;23;20006;-43
2022/07/02 00:34:32;;;;;;;0.63;0.40;;;;;;;25.82;34.58;101850.28;6194232;23;20390;-43
2022/07/02 00:37:01;;;;;;;2.35;0.50;;;;;;;25.82;34.78;101857.28;6219004;23;20020;-43
2022/07/02 00:39:30;;;;;;;2.95;0.60;;;;;;;25.78;34.79;101853.72;6246047;23;20000;-43
2022/07/02 00:42:00;;;;;;;0.40;0.30;;;;;;;25.77;34.80;101855.44;6246084;23;20076;-43
2022/07/02 00:44:28;;;;;;;2.28;0.40;;;;;;;25.68;34.74;101852.66;6245669;23;20008;-43
2022/07/02 00:46:57;;;;;;;0.93;0.50;;;;;;;25.65;35.11;101857.84;6219191;23;20035;-43
2022/07/02 00:49:26;;;;;;;1.70;0.40;;;;;;;25.66;34.79;101850.84;6219795;23;20027;-44
2022/07/02 00:51:54;;;;;;;0.90;0.60;;;;;;;25.55;35.13;101841.00;6246431;23;20011;-43
2022/07/02 00:54:23;;;;;;;1.05;0.50;;;;;;;25.66;35.15;101866.59;6245967;23;20004;-43
2022/07/02 00:56:53;;;;;;;1.45;0.43;;;;;;;25.61;34.92;101854.28;6218849;23;20158;-43
2022/07/02 00:59:24;;;;;;;1.33;0.55;;;;;;;25.61;35.02;101845.50;6244358;23;20008;-43
2022/07/02 01:01:53;;;;;;;0.65;0.40;;;;;;;25.68;34.94;101851.75;6219935;23;20008;-44
2022/07/02 01:04:23;;;;;;;1.05;0.60;;;;;;;25.62;34.88;101848.16;6218822;23;20000;-43
2022/07/02 01:06:52;;;;;;;0.52;0.35;;;;;;;25.58;34.88;101832.28;6245545;23;20018;-43
2022/07/02 01:12:09;;;;;;;0.63;0.40;;;;;;;25.51;34.90;101831.28;6228633;23;20087;-43
2022/07/02 01:14:38;;;;;;;1.23;0.40;;;;;;;25.59;34.77;101855.09;6219145;23;20004;-43
2022/07/02 01:17:07;;;;;;;3.53;0.80;;;;;;;25.59;34.78;101853.34;6244552;23;20008;-43
2022/07/02 01:19:35;;;;;;;0.60;0.38;;;;;;;25.55;34.96;101855.91;6246064;23;20031;-43
2022/07/02 01:22:24;;;;;;;1.35;0.40;;;;;;;25.48;35.31;101847.88;6244187;23;20019;-43
2022/07/02 01:24:55;;;;;;;0.73;0.40;;;;;;;25.41;34.73;101827.53;6245476;23;20054;-43
2022/07/02 01:27:24;;;;;;;0.77;0.30;;;;;;;25.52;34.81;101850.56;6245524;23;20012;-44
2022/07/02 01:29:53;;;;;;;0.43;0.40;;;;;;;25.53;34.80;101849.72;6245515;23;20015;-43
2022/07/02 01:32:22;;;;;;;0.52;0.32;;;;;;;25.48;35.03;101854.88;6246124;23;20032;-44
2022/07/02 01:34:53;;;;;;;2.72;0.40;;;;;;;25.47;34.76;101854.00;6218674;23;20043;-43
2022/07/02 01:37:23;;;;;;;2.70;0.40;;;;;;;25.49;35.00;101838.25;6244784;23;20066;-43
2022/07/02 01:39:51;;;;;;;1.08;0.35;;;;;;;25.32;35.15;101815.09;6219102;23;20032;-43
2022/07/02 01:42:20;;;;;;;0.60;0.40;;;;;;;25.45;35.16;101844.31;6245967;23;20004;-43
2022/07/02 01:44:49;;;;;;;1.70;0.35;;;;;;;25.44;34.98;101838.16;6196019;23;20010;-43
2022/07/02 01:47:18;;;;;;;0.50;0.30;;;;;;;25.37;34.88;101823.09;6221363;23;20022;-43
2022/07/02 01:49:47;;;;;;;1.58;0.50;;;;;;;25.47;34.98;101835.59;6247642;23;20008;-43
2022/07/02 01:52:16;;;;;;;0.73;0.40;;;;;;;25.35;34.74;101822.19;6221590;23;20000;-43
2022/07/02 01:54:45;;;;;;;0.52;0.28;;;;;;;25.47;34.96;101834.72;6247834;23;20004;-43
2022/07/02 01:57:14;;;;;;;0.70;0.20;;;;;;;25.50;34.85;101833.91;6247177;23;20355;-44
2022/07/02 01:59:43;;;;;;;0.88;0.45;;;;;;;25.42;34.60;101824.09;6248073;23;20083;-43
2022/07/02 02:02:11;;;;;;;0.40;0.28;;;;;;;25.37;34.76;101827.47;6221018;23;20011;-43
2022/07/02 02:04:40;;;;;;;0.43;0.30;;;;;;;25.44;34.91;101832.03;6221113;23;20332;-44
2022/07/02 02:07:09;;;;;;;0.45;0.30;;;;;;;25.37;34.91;101833.63;6220137;23;20008;-43
2022/07/02 02:09:38;;;;;;;0.20;0.20;;;;;;;25.35;34.60;101830.06;6246901;23;20450;-43
2022/07/02 02:12:07;;;;;;;0.50;0.20;;;;;;;25.34;34.96;101838.78;6247316;23;20019;-43
2022/07/02 02:14:35;;;;;;;0.28;0.20;;;;;;;25.36;35.05;101844.06;6220513;23;20004;-43
2022/07/02 02:17:04;;;;;;;0.60;0.40;;;;;;;25.24;34.82;101821.97;6245668;23;20095;-43
2022/07/02 02:19:33;;;;;;;0.60;0.32;;;;;;;25.36;35.00;101836.19;6245214;23;20031;-44
2022/07/02 02:22:02;;;;;;;0.45;0.40;;;;;;;25.36;35.02;101841.44;6220433;23;20011;-45
2022/07/02 02:24:31;;;;;;;0.95;0.40;;;;;;;25.36;35.12;101841.44;6245948;23;20076;-44
2022/07/02 02:27:00;;;;;;;0.85;0.43;;;;;;;25.31;34.71;101833.47;6246184;23;20011;-44
2022/07/02 02:29:29;;;;;;;2.05;0.50;;;;;;;25.30;34.83;101832.59;6246713;23;20083;-45
2022/07/02 02:31:57;;;;;;;0.75;0.45;;;;;;;25.28;34.89;101825.53;6246624;23;20057;-43
2022/07/02 02:34:26;;;;;;;0.50;0.30;;;;;;;25.35;34.71;101835.31;6247105;23;20011;-43
2022/07/02 02:36:54;;;;;;;0.73;0.30;;;;;;;25.33;34.77;101831.78;6246774;23;20004;-43
2022/07/02 02:39:23;;;;;;;1.55;0.60;;;;;;;25.32;35.11;101830.88;6246781;23;20007;-49
2022/07/02 02:41:51;;;;;;;0.40;0.20;;;;;;;25.29;34.73;101835.19;6246234;23;20006;-44
2022/07/02 02:44:19;;;;;;;1.58;0.40;;;;;;;25.29;34.88;101822.94;6247024;23;20098;-47
2022/07/02 02:46:48;;;;;;;1.33;0.30;;;;;;;25.24;34.98;101826.31;6220625;23;20031;-43
2022/07/02 02:49:15;;;;;;;1.38;0.40;;;;;;;25.24;34.85;101821.97;6246307;23;20531;-47
2022/07/02 02:51:44;;;;;;;0.45;0.30;;;;;;;25.10;34.96;101791.91;6246886;23;20450;-46
2022/07/02 02:54:12;;;;;;;0.52;0.30;;;;;;;25.29;34.62;101825.56;6246524;23;20332;-44
2022/07/02 02:56:41;;;;;;;0.82;0.30;;;;;;;25.13;35.09;101803.34;6245908;23;20008;-45
2022/07/02 02:59:09;;;;;;;1.25;0.40;;;;;;;25.24;35.24;101827.22;6246988;23;20074;-47
2022/07/02 03:01:38;;;;;;;0.60;0.13;;;;;;;25.15;35.06;101812.16;6246839;23;20336;-44
2022/07/02 03:04:06;;;;;;;1.40;0.38;;;;;;;25.29;35.14;101820.31;6219853;23;20019;-44
2022/07/02 03:06:35;;;;;;;1.48;0.30;;;;;;;25.29;34.91;101822.94;6244841;23;20004;-45
2022/07/02 03:09:03;;;;;;;1.70;0.38;;;;;;;25.27;34.87;101815.88;6246265;23;20031;-43
2022/07/02 03:11:32;;;;;;;2.85;0.40;;;;;;;25.27;34.77;101815.88;6219787;23;20542;-43
2022/07/02 03:14:00;;;;;;;2.10;0.40;;;;;;;25.28;35.06;101815.03;6246422;23;20105;-44
2022/07/02 03:16:29;;;;;;;2.58;0.28;;;;;;;25.21;35.26;101814.00;6247171;23;20008;-47
2022/07/02 03:18:57;;;;;;;1.08;0.50;;;;;;;25.25;34.73;101807.06;6246265;23;20007;-49
2022/07/02 03:21:26;;;;;;;0.60;0.43;;;;;;;25.20;35.07;101806.97;6246353;23;20032;-44
2022/07/02 03:23:55;;;;;;;1.20;0.52;;;;;;;25.18;35.06;101792.94;6246477;23;20051;-43
2022/07/02 03:26:23;;;;;;;1.08;0.50;;;;;;;24.86;35.23;101757.28;6246173;23;20418;-44
2022/07/02 03:28:52;;;;;;;0.40;0.20;;;;;;;25.21;35.04;101802.63;6246423;23;20008;-44
2022/07/02 03:31:20;;;;;;;0.93;0.38;;;;;;;25.20;35.04;101806.97;6247553;23;19996;-47
2022/07/02 03:33:49;;;;;;;1.55;0.45;;;;;;;25.18;35.10;101806.06;6246137;23;20027;-52
2022/07/02 03:36:18;;;;;;;1.70;0.30;;;;;;;25.17;35.13;101805.19;6246010;23;20004;-44
2022/07/02 03:38:48;;;;;;;1.02;0.30;;;;;;;25.18;34.95;101813.94;6246513;23;20008;-45
2022/07/02 03:41:16;;;;;;;1.92;0.30;;;;;;;25.23;35.20;101811.44;6246283;23;20498;-43
2022/07/02 03:43:45;;;;;;;0.98;0.57;;;;;;;25.21;35.14;101813.13;6246372;23;19996;-48
2022/07/02 03:46:16;;;;;;;2.75;0.57;;;;;;;25.20;35.20;101811.38;6245537;23;20000;-46
2022/07/02 03:48:45;;;;;;;5.57;0.45;;;;;;;25.15;35.06;101806.03;6246456;23;20004;-43
2022/07/02 03:51:13;;;;;;;0.90;0.40;;;;;;;25.19;35.33;101805.22;6219758;23;20439;-44
2022/07/02 03:53:42;;;;;;;0.98;0.30;;;;;;;25.20;35.10;101806.97;6246258;23;20396;-44
2022/07/02 03:56:10;;;;;;;0.73;0.30;;;;;;;25.18;34.95;101808.69;6246330;23;20004;-45
2022/07/02 03:58:39;;;;;;;1.02;0.43;;;;;;;25.19;35.23;101805.22;6245790;23;20016;-45
2022/07/02 04:01:08;;;;;;;0.77;0.30;;;;;;;25.20;34.94;101803.47;6246240;23;20030;-43
2022/07/02 04:03:37;;;;;;;0.50;0.40;;;;;;;25.27;35.18;101813.25;6245827;23;20008;-43
2022/07/02 04:06:06;;;;;;;0.80;0.35;;;;;;;25.24;35.02;101814.09;6245980;23;20463;-44
2022/07/02 04:08:34;;;;;;;1.08;0.30;;;;;;;25.17;35.07;101809.53;6245645;23;20435;-44
2022/07/02 04:11:03;;;;;;;1.50;0.40;;;;;;;25.15;35.21;101817.41;6245950;23;20004;-46
2022/07/02 04:13:31;;;;;;;0.38;0.30;;;;;;;25.10;35.36;101807.66;6246349;23;20071;-48
2022/07/02 04:16:00;;;;;;;4.43;0.43;;;;;;;25.15;35.44;101812.16;6245983;23;20004;-47
2022/07/02 04:18:28;;;;;;;0.25;0.20;;;;;;;25.14;34.95;101812.13;6219135;23;20005;-44
2022/07/02 04:20:57;;;;;;;0.52;0.40;;;;;;;25.13;35.09;101813.84;6245905;23;20051;-43
2022/07/02 04:23:25;;;;;;;1.85;0.30;;;;;;;25.12;35.48;101816.44;6245483;23;20458;-44
2022/07/02 04:25:54;;;;;;;0.32;0.22;;;;;;;25.10;35.33;101813.78;6245741;23;20000;-50
2022/07/02 04:28:23;;;;;;;0.70;0.50;;;;;;;25.10;34.99;101812.91;6245653;23;20014;-50
2022/07/02 04:30:52;;;;;;;0.50;0.30;;;;;;;25.09;35.55;101808.50;6245482;23;20106;-47
2022/07/02 04:33:20;;;;;;;0.73;0.30;;;;;;;24.99;35.17;101804.78;6246085;23;20050;-45
2022/07/02 04:35:48;;;;;;;1.48;0.40;;;;;;;25.03;35.32;101804.00;6245669;23;20007;-47
2022/07/02 04:38:17;;;;;;;0.20;0.20;;;;;;;24.92;35.54;101801.16;6245601;23;20016;-45
2022/07/02 04:40:47;;;;;;;0.30;0.20;;;;;;;25.05;35.32;101820.69;6246008;23;20008;-43
2022/07/02 04:43:15;;;;;;;1.02;0.35;;;;;;;25.06;35.27;101821.56;6246022;23;20032;-45
2022/07/02 04:45:44;;;;;;;3.15;0.60;;;;;;;25.02;35.29;101810.13;6245500;23;20004;-44
2022/07/02 04:48:13;;;;;;;1.85;0.30;;;;;;;25.11;35.21;101820.81;6245214;23;20019;-44
2022/07/02 04:50:41;;;;;;;0.75;0.28;;;;;;;25.14;34.91;101817.38;6245909;23;20309;-50
2022/07/02 04:53:09;;;;;;;0.57;0.20;;;;;;;25.09;35.00;101819.00;6245880;23;20000;-44
2022/07/02 04:55:38;;;;;;;0.25;0.20;;;;;;;25.03;35.38;101811.88;6245363;23;20004;-43
2022/07/02 04:58:06;;;;;;;0.35;0.30;;;;;;;24.98;35.53;101805.63;6245565;23;20024;-44
2022/07/02 05:00:35;;;;;;;0.20;0.10;;;;;;;25.12;35.33;101813.81;6245815;23;20023;-45
2022/07/02 05:03:03;;;;;;;0.20;0.20;;;;;;;25.11;34.97;101812.06;6245576;23;20561;-46
2022/07/02 05:05:32;;;;;;;0.95;0.57;;;;;;;25.10;35.23;101805.91;6245410;23;20000;-44
2022/07/02 05:08:00;;;;;;;0.45;0.22;;;;;;;25.11;35.13;101807.66;6245189;23;20035;-47
2022/07/02 05:10:29;;;;;;;0.98;0.43;;;;;;;25.13;35.14;101805.97;6245013;23;20011;-43
2022/07/02 05:12:57;;;;;;;0.90;0.40;;;;;;;25.16;35.19;101805.13;6219034;23;20301;-43
2022/07/02 05:15:26;;;;;;;0.60;0.30;;;;;;;25.15;35.07;101812.16;6246081;23;20008;-43
2022/07/02 05:17:55;;;;;;;0.80;0.43;;;;;;;25.15;34.86;101801.66;6246570;23;20011;-53
2022/07/02 05:20:23;;;;;;;0.20;0.20;;;;;;;25.17;34.99;101807.81;6247713;23;20008;-47
2022/07/02 05:22:52;;;;;;;0.60;0.30;;;;;;;25.31;34.56;101802.88;6247867;23;20007;-53
2022/07/02 05:25:20;;;;;;;0.32;0.22;;;;;;;25.21;34.98;101803.50;6247283;23;20015;-43
2022/07/02 05:27:48;;;;;;;1.25;0.45;;;;;;;25.29;35.00;101804.56;6247222;23;20034;-44
2022/07/02 05:30:17;;;;;;;1.10;0.30;;;;;;;25.31;34.97;101808.13;6247721;23;20198;-44
2022/07/02 05:32:45;;;;;;;1.00;0.45;;;;;;;25.27;35.00;101808.91;6247729;23;20019;-44
2022/07/02 05:35:13;;;;;;;0.35;0.30;;;;;;;25.28;35.17;101808.03;6246251;23;20004;-45
2022/07/02 05:37:42;;;;;;;1.13;0.30;;;;;;;25.18;35.10;101788.59;6246277;23;20360;-44
2022/07/02 05:40:10;;;;;;;1.40;0.40;;;;;;;25.31;35.14;101804.59;6247225;23;20038;-44
2022/07/02 05:42:39;;;;;;;0.65;0.35;;;;;;;25.33;35.23;101816.88;6247216;23;20011;-43
2022/07/02 05:45:07;;;;;;;2.05;0.38;;;;;;;25.38;34.98;101809.13;6247538;23;20320;-44
2022/07/02 05:47:36;;;;;;;0.95;0.38;;;;;;;25.42;34.89;101817.97;6247110;23;20008;-44
2022/07/02 05:50:05;;;;;;;0.80;0.30;;;;;;;25.43;34.96;101804.84;6247945;23;20047;-43
2022/07/02 05:52:33;;;;;;;1.13;0.43;;;;;;;25.53;34.89;101803.31;6247630;23;20000;-42
2022/07/02 05:55:02;;;;;;;0.88;0.40;;;;;;;25.55;35.05;101795.47;6246616;23;20004;-47
2022/07/02 05:57:30;;;;;;;2.00;0.65;;;;;;;25.53;35.46;101798.06;6220746;23;20443;-44
2022/07/02 05:59:58;;;;;;;0.70;0.32;;;;;;;25.70;35.24;101798.41;6247439;23;20336;-51
2022/07/02 06:02:25;;;;;;;1.48;0.68;;;;;;;25.72;35.08;101801.03;6247017;23;20087;-44
2022/07/02 06:04:53;;;;;;;2.60;0.50;;;;;;;25.70;35.31;101800.13;6246963;23;20332;-45
2022/07/02 06:07:42;;;;;;;4.63;0.70;;;;;;;25.81;34.85;101801.22;6247041;23;20005;-49
2022/07/02 06:10:10;;;;;;;3.88;0.85;;;;;;;25.87;35.35;101792.56;6246827;23;20447;-43
2022/07/02 06:12:38;;;;;;;2.40;0.70;;;;;;;25.86;35.06;101801.31;6247171;23;20004;-44
2022/07/02 06:15:07;;;;;;;1.65;0.40;;;;;;;25.91;35.18;101802.25;6247017;23;20070;-50
2022/07/02 06:17:36;;;;;;;1.98;0.60;;;;;;;25.98;35.13;101800.66;6246897;23;20072;-44
2022/07/02 06:20:04;;;;;;;2.35;0.60;;;;;;;26.02;35.08;101805.97;6247010;23;20428;-47
2022/07/02 06:22:33;;;;;;;3.75;0.43;;;;;;;26.02;35.30;101805.97;6247243;23;20452;-48
2022/07/02 06:25:01;;;;;;;0.82;0.30;;;;;;;26.08;35.08;101813.94;6247046;23;20008;-45
2022/07/02 06:27:33;;;;;;;1.55;0.45;;;;;;;26.08;35.19;101815.72;6246593;23;20083;-45
2022/07/02 06:30:02;;;;;;;3.47;0.77;;;;;;;26.14;35.05;101810.59;6246532;23;19996;-45
2022/07/02 06:32:31;;;;;;;2.50;0.40;;;;;;;26.24;35.33;101815.16;6247035;23;20004;-48
2022/07/02 06:34:58;;;;;;;4.32;0.68;;;;;;;26.26;35.33;101820.41;6247156;23;20004;-45
2022/07/02 06:37:27;;;;;;;5.68;0.65;;;;;;;26.35;35.40;101822.31;6246575;23;20016;-48
2022/07/02 06:39:56;;;;;;;3.67;0.65;;;;;;;26.43;35.23;101820.72;6246752;23;20004;-43
2022/07/02 06:42:26;;;;;;;5.70;0.60;;;;;;;26.47;35.37;101816.38;6246864;23;20505;-45
2022/07/02 06:44:58;;;;;;;4.50;0.57;;;;;;;26.51;35.21;101815.56;6246613;23;20447;-45
2022/07/02 06:47:27;;;;;;;6.65;0.65;;;;;;;26.57;35.33;101823.53;6246736;23;20012;-52
2022/07/02 06:49:57;;;;;;;6.00;0.73;;;;;;;26.64;35.61;101821.91;6246507;23;20007;-45
2022/07/02 06:52:25;;;;;;;3.60;0.50;;;;;;;26.65;35.58;101815.75;6219865;23;20004;-44
2022/07/02 06:54:54;;;;;;;4.93;0.82;;;;;;;26.73;35.44;101818.50;6246853;23;20000;-44
2022/07/02 06:57:23;;;;;;;5.85;0.60;;;;;;;26.73;35.56;101815.88;6246282;23;20016;-52
2022/07/02 06:59:51;;;;;;;1.63;0.50;;;;;;;26.83;35.66;101820.47;6246735;23;20004;-44
2022/07/02 07:02:20;;;;;;;2.00;0.47;;;;;;;26.85;35.65;101821.38;6220215;23;20004;-45
2022/07/02 07:04:49;;;;;;;5.93;0.60;;;;;;;26.88;35.78;101810.00;6246409;23;20038;-44
2022/07/02 07:07:18;;;;;;;2.92;0.50;;;;;;;26.90;35.72;101810.91;6246236;23;20015;-45
2022/07/02 07:09:47;;;;;;;7.63;0.90;;;;;;;26.96;35.56;101814.50;6246790;23;20019;-45
2022/07/02 07:12:15;;;;;;;6.55;0.73;;;;;;;27.01;35.50;101811.94;6219816;23;20058;-50
2022/07/02 07:14:44;;;;;;;3.90;0.40;;;;;;;27.06;35.52;101812.88;6220425;23;20110;-43
2022/07/02 07:17:16;;;;;;;2.33;0.38;;;;;;;27.08;35.53;101808.53;6246893;23;20004;-43
2022/07/02 07:19:44;;;;;;;2.78;0.63;;;;;;;27.15;35.76;101812.13;6220543;23;20431;-49
2022/07/02 07:22:13;;;;;;;2.10;0.40;;;;;;;27.20;35.49;101814.81;6246670;23;20000;-42
2022/07/02 07:24:41;;;;;;;1.35;0.45;;;;;;;27.12;35.65;101797.19;6246210;23;20004;-44
2022/07/02 07:27:10;;;;;;;4.75;0.60;;;;;;;27.27;35.70;101812.28;6219797;23;20424;-43
2022/07/02 07:29:38;;;;;;;1.17;0.40;;;;;;;27.28;35.56;101815.81;6219714;23;20004;-43
2022/07/02 07:32:07;;;;;;;3.00;0.65;;;;;;;27.35;35.65;101824.66;6246584;23;19996;-42
2022/07/02 07:34:36;;;;;;;1.77;0.40;;;;;;;27.35;35.43;101811.50;6245041;23;20027;-45
2022/07/02 07:37:04;;;;;;;1.70;0.50;;;;;;;27.43;35.68;101813.34;6246011;23;20008;-42
2022/07/02 07:39:33;;;;;;;2.05;0.38;;;;;;;27.47;35.54;101808.16;6219310;23;20004;-42
2022/07/02 07:42:01;;;;;;;2.58;0.43;;;;;;;27.54;35.47;101817.88;6246422;23;20027;-43
2022/07/02 07:44:30;;;;;;;2.33;0.70;;;;;;;27.58;35.54;101824.97;6246138;23;20519;-43
2022/07/02 07:46:59;;;;;;;1.08;0.40;;;;;;;27.57;35.71;101810.88;6244971;23;20055;-44
2022/07/02 07:49:28;;;;;;;4.47;0.50;;;;;;;27.67;35.34;101816.28;6220039;23;20004;-42
2022/07/02 07:51:57;;;;;;;1.10;0.30;;;;;;;27.68;35.63;101820.69;6246548;23;20062;-43
2022/07/02 07:54:25;;;;;;;2.17;0.60;;;;;;;27.77;35.47;101827.81;6246294;23;20106;-42
2022/07/02 07:56:54;;;;;;;1.75;0.63;;;;;;;27.79;35.61;101823.44;6245850;23;20008;-42
2022/07/02 07:59:22;;;;;;;1.60;0.28;;;;;;;27.78;35.45;101821.66;6220206;23;20436;-42
2022/07/02 08:01:51;;;;;;;4.35;0.43;;;;;;;27.84;35.58;101819.97;6220095;23;20095;-42
2022/07/02 08:04:20;;;;;;;1.70;0.40;;;;;;;27.88;35.72;101824.38;6246319;23;20004;-42
2022/07/02 08:06:49;;;;;;;3.78;0.40;;;;;;;27.89;35.40;101814.75;6246235;23;20014;-43
2022/07/02 08:09:18;;;;;;;1.20;0.50;;;;;;;27.99;35.35;101829.78;6246198;23;20010;-42
2022/07/02 08:11:46;;;;;;;1.67;0.88;;;;;;;27.93;35.39;101808.63;6219032;23;20482;-44
2022/07/02 08:14:15;;;;;;;3.63;0.55;;;;;;;27.95;35.40;101809.53;6246265;23;20004;-44
2022/07/02 08:16:44;;;;;;;2.08;0.60;;;;;;;28.00;35.38;101820.13;6245681;23;20004;-42
2022/07/02 08:19:13;;;;;;;1.60;0.30;;;;;;;28.04;35.52;101814.88;6246176;23;20008;-42
2022/07/02 08:21:41;;;;;;;1.75;0.40;;;;;;;28.04;35.37;101808.75;6246103;23;20001;-42
2022/07/02 08:24:10;;;;;;;1.33;0.43;;;;;;;28.14;35.42;101822.91;6245650;23;20364;-42
2022/07/02 08:26:39;;;;;;;1.40;0.57;;;;;;;28.13;35.48;101810.59;6245399;23;20031;-43
2022/07/02 08:29:09;;;;;;;2.10;0.47;;;;;;;28.22;35.40;101817.69;6246484;23;20385;-42
2022/07/02 08:31:37;;;;;;;1.73;0.40;;;;;;;28.26;35.30;101820.38;6246003;23;20075;-42
2022/07/02 08:34:06;;;;;;;1.88;0.73;;;;;;;28.27;35.46;101814.25;6246255;23;20012;-46
2022/07/02 08:36:35;;;;;;;1.90;0.45;;;;;;;28.26;35.41;101809.84;6245933;23;20032;-42
2022/07/02 08:39:03;;;;;;;1.83;0.52;;;;;;;28.31;35.30;101815.16;6219274;23;20005;-42
2022/07/02 08:41:32;;;;;;;0.70;0.30;;;;;;;28.33;35.39;101809.00;6246029;23;20359;-42
2022/07/02 08:44:02;;;;;;;2.58;0.60;;;;;;;28.40;35.42;101822.25;6194544;23;20004;-43
2022/07/02 08:46:31;;;;;;;0.98;0.50;;;;;;;28.40;35.36;101814.34;6219505;23;20004;-42
2022/07/02 08:49:01;;;;;;;0.38;0.20;;;;;;;28.44;35.45;101822.28;6246030;23;20007;-42
2022/07/02 08:51:29;;;;;;;1.80;0.43;;;;;;;28.50;35.43;101821.44;6245629;23;20084;-42
2022/07/02 08:53:57;;;;;;;1.52;0.40;;;;;;;28.48;35.32;101824.06;6245231;23;20001;-46
2022/07/02 08:56:26;;;;;;;1.23;0.30;;;;;;;28.47;35.47;101811.75;6245751;23;20008;-43
2022/07/02 08:58:55;;;;;;;1.83;0.50;;;;;;;28.49;35.29;101820.56;6245577;23;20012;-44
2022/07/02 09:01:24;;;;;;;3.35;0.68;;;;;;;28.41;35.08;101795.84;6244334;23;20037;-42
2022/07/02 09:03:54;;;;;;;2.70;0.60;;;;;;;28.48;35.24;101815.25;6194474;23;20008;-46
2022/07/02 09:06:26;;;;;;;4.28;0.75;;;;;;;28.49;34.99;101824.94;6246162;23;20022;-43
2022/07/02 09:08:54;;;;;;;3.63;0.90;;;;;;;28.49;34.91;101812.66;6219036;23;20004;-43
2022/07/02 09:11:23;;;;;;;3.40;1.00;;;;;;;28.45;34.58;101817.91;6219948;23;20031;-43
2022/07/02 09:13:51;;;;;;;4.32;0.80;;;;;;;28.48;34.23;101823.19;6219822;23;20008;-45
2022/07/02 09:16:21;;;;;;;2.67;0.50;;;;;;;28.52;34.39;101819.69;6219299;23;20427;-43
2022/07/02 09:18:49;;;;;;;4.10;1.00;;;;;;;28.53;34.22;101824.09;6219261;23;20027;-43
2022/07/02 09:21:18;;;;;;;2.92;0.60;;;;;;;28.51;34.26;101828.47;6219281;23;20075;-43
2022/07/02 09:23:48;;;;;;;3.33;0.88;;;;;;;28.49;34.25;101830.22;6245557;23;20019;-43
2022/07/02 09:26:21;;;;;;;2.00;0.90;;;;;;;28.47;34.06;101831.97;6219066;23;20031;-42
2022/07/02 09:29:01;;;;;;;5.03;0.97;;;;;;;28.38;34.21;101827.50;6245689;23;20036;-42
2022/07/02 09:31:30;;;;;;;3.85;1.10;;;;;;;28.37;34.06;101828.41;6246063;23;20010;-43
2022/07/02 09:33:59;;;;;;;3.40;1.13;;;;;;;28.25;34.38;101829.19;6244069;23;20335;-43
2022/07/02 09:36:27;;;;;;;2.53;0.65;;;;;;;28.18;34.24;101832.63;6219055;23;20359;-44
2022/07/02 09:38:56;;;;;;;6.18;0.90;;;;;;;28.30;34.10;101823.94;6219099;23;20427;-43
2022/07/02 09:41:25;;;;;;;4.55;0.80;;;;;;;28.35;34.05;101820.44;6245844;23;20434;-47
2022/07/02 09:43:58;;;;;;;6.38;1.35;;;;;;;28.33;33.90;101835.38;6219665;23;20028;-44
2022/07/02 09:46:27;;;;;;;3.92;0.90;;;;;;;28.29;33.67;101828.34;6244131;23;22287;-44
2022/07/02 09:49:06;;;;;;;3.67;0.93;;;;;;;28.32;33.87;101827.47;6245529;23;20008;-53
2022/07/02 09:51:34;;;;;;;5.80;1.10;;;;;;;28.27;33.72;101826.53;6244241;23;20075;-46
2022/07/02 09:54:02;;;;;;;3.33;0.70;;;;;;;28.20;34.04;101833.50;6246356;23;20007;-46
2022/07/02 09:56:30;;;;;;;3.00;0.63;;;;;;;28.16;33.69;101829.06;6219678;23;20008;-43
2022/07/02 09:58:58;;;;;;;2.80;0.70;;;;;;;28.26;33.58;101835.31;6245481;23;20015;-43
2022/07/02 10:01:27;;;;;;;4.60;0.98;;;;;;;28.21;33.63;101816.81;6219472;23;20435;-44
2022/07/02 10:03:56;;;;;;;2.80;0.82;;;;;;;28.22;33.85;101830.88;6219576;23;20462;-44
2022/07/02 10:06:25;;;;;;;3.15;0.82;;;;;;;28.26;33.87;101833.59;6247418;23;20313;-44
2022/07/02 10:08:55;;;;;;;3.78;0.80;;;;;;;28.20;34.03;101820.31;6247956;23;20000;-43
2022/07/02 10:11:24;;;;;;;2.80;1.23;;;;;;;28.26;34.03;101830.03;6221600;23;20032;-47
2022/07/02 10:13:56;;;;;;;3.28;1.08;;;;;;;28.11;34.40;101828.19;6220622;23;20069;-47
2022/07/02 10:16:25;;;;;;;5.47;1.00;;;;;;;28.22;34.13;101826.50;6220469;23;20009;-43
2022/07/02 10:18:54;;;;;;;2.75;0.90;;;;;;;28.22;33.59;101821.22;6221565;23;20007;-49
2022/07/02 10:21:23;;;;;;;2.72;0.90;;;;;;;28.28;33.52;101829.22;6246224;23;20007;-43
2022/07/02 10:23:52;;;;;;;2.20;0.80;;;;;;;28.16;33.79;101822.06;6247223;23;20011;-44
2022/07/02 10:26:22;;;;;;;3.83;0.80;;;;;;;28.24;33.53;101822.13;6245803;23;20440;-44
2022/07/02 10:28:52;;;;;;;4.38;0.77;;;;;;;28.19;33.68;101821.19;6247562;23;20018;-42
2022/07/02 10:31:21;;;;;;;2.67;0.80;;;;;;;28.25;33.22;101818.63;6247575;23;20043;-49
2022/07/02 10:33:59;;;;;;;1.63;0.50;;;;;;;28.23;33.13;101822.09;6245948;23;20035;-43
2022/07/02 10:36:28;;;;;;;3.45;0.70;;;;;;;28.04;33.60;101812.25;6247172;23;20004;-42
2022/07/02 10:38:59;;;;;;;3.08;1.08;;;;;;;28.10;33.51;101823.75;6246875;23;20016;-43
2022/07/02 10:41:28;;;;;;;3.20;0.93;;;;;;;27.80;33.78;101812.91;6245177;23;20313;-42
2022/07/02 10:43:57;;;;;;;4.50;0.70;;;;;;;28.01;33.36;101820.13;6246016;23;20008;-42
2022/07/02 10:46:28;;;;;;;3.70;1.30;;;;;;;28.09;33.30;101825.47;6245612;23;20012;-43
2022/07/02 10:48:58;;;;;;;3.10;0.88;;;;;;;28.06;33.58;101814.88;6245803;23;20383;-42
2022/07/02 10:51:28;;;;;;;2.92;0.85;;;;;;;28.07;33.48;101819.28;6219779;23;20004;-42
2022/07/02 10:54:07;;;;;;;3.92;0.65;;;;;;;28.10;33.30;101816.72;6221204;23;20109;-42
2022/07/02 10:56:55;;;;;;;2.40;0.88;;;;;;;28.12;33.58;101819.41;6220119;23;20012;-44
2022/07/02 10:59:24;;;;;;;4.38;0.70;;;;;;;28.15;32.89;101816.75;6247045;23;20008;-42
2022/07/02 11:02:06;;;;;;;2.55;0.60;;;;;;;28.08;32.52;101820.19;6220167;23;20079;-42
2022/07/02 11:04:35;;;;;;;2.30;0.60;;;;;;;27.92;33.47;101816.50;6220829;23;20004;-42
2022/07/02 11:07:06;;;;;;;3.80;0.98;;;;;;;27.99;32.99;101818.34;6246969;23;20004;-42
2022/07/02 11:09:45;;;;;;;3.15;0.85;;;;;;;27.89;33.63;101804.19;6246799;23;20416;-42
2022/07/02 11:12:15;;;;;;;2.17;0.60;;;;;;;28.01;33.35;101820.13;6247017;23;20079;-42
2022/07/02 11:14:55;;;;;;;5.65;1.02;;;;;;;28.06;33.33;101820.16;6220368;23;20477;-43
2022/07/02 11:17:24;;;;;;;2.33;0.70;;;;;;;28.10;33.42;101826.41;6246334;23;20069;-42
2022/07/02 11:19:54;;;;;;;4.85;1.00;;;;;;;28.10;33.17;101829.91;6246625;23;20000;-42
2022/07/02 11:22:23;;;;;;;2.67;0.90;;;;;;;27.98;33.42;101812.19;6195087;23;20086;-43
2022/07/02 11:24:55;;;;;;;3.45;1.00;;;;;;;27.92;33.86;101825.31;6219328;23;20012;-43
2022/07/02 11:27:23;;;;;;;1.88;0.70;;;;;;;27.96;33.90;101826.22;6220240;23;20008;-44
2022/07/02 11:29:56;;;;;;;3.92;0.60;;;;;;;27.90;34.14;101835.84;6195609;23;20438;-41
2022/07/02 11:32:24;;;;;;;2.45;0.60;;;;;;;28.01;34.00;101832.44;6247256;23;20004;-42
2022/07/02 11:35:02;;;;;;;1.42;0.55;;;;;;;28.03;33.93;101835.97;6219727;23;20008;-42
2022/07/02 11:37:31;;;;;;;2.00;0.70;;;;;;;28.01;33.31;101835.94;6220185;23;20505;-42